This is the latest recevied weather packets stored in our database for station/object AA7VG. If no packets are shown the sender has not sent any weather packets the latest 1 day(s).
| Time | Temp. | Humidity | Pressure | Rain* | Wind** | Luminosity | Snow |
|---|---|---|---|---|---|---|---|
| 1778030355 | 7.22° C | 38% | 1016.3 hPa | 0 mm | 3.58 m/s, 13° | - | - |
| 1778030052 | 7.22° C | 38% | 1015.9 hPa | 0 mm | 1.79 m/s, 321° | - | - |
| 1778029749 | 7.22° C | 37% | 1015.9 hPa | 0 mm | 2.24 m/s, 9° | - | - |
| 1778029448 | 7.78° C | 36% | 1015.9 hPa | 0 mm | 1.79 m/s, 331° | - | - |
| 1778029144 | 7.78° C | 37% | 1015.9 hPa | 0 mm | 1.34 m/s, 21° | - | - |
| 1778028842 | 7.78° C | 36% | 1015.8 hPa | 0 mm | 2.68 m/s, 325° | - | - |
| 1778028537 | 7.78° C | 37% | 1015.9 hPa | 0 mm | 3.13 m/s, 315° | - | - |
| 1778028235 | 8.33° C | 36% | 1015.4 hPa | 0 mm | 2.24 m/s, 28° | - | - |
| 1778027931 | 8.33° C | 36% | 1015.6 hPa | 0 mm | 2.68 m/s, 347° | - | - |
| 1778027627 | 8.33° C | 35% | 1015.5 hPa | 0 mm | 3.13 m/s, 300° | - | - |
| 1778027323 | 7.78° C | 36% | 1015.6 hPa | 0 mm | 1.79 m/s, 344° | - | - |
| 1778027020 | 8.33° C | 36% | 1015.6 hPa | 0 mm | 3.13 m/s, 358° | - | - |
| 1778026715 | 8.33° C | 35% | 1015.5 hPa | 0 mm | 3.13 m/s, 324° | - | - |
| 1778026413 | 8.33° C | 35% | 1015.4 hPa | 0 mm | 2.24 m/s, 345° | - | - |
| 1778026110 | 8.33° C | 34% | 1015.5 hPa | 0 mm | 2.68 m/s, 334° | - | - |
| 1778025808 | 8.33° C | 33% | 1015.3 hPa | 0 mm | 0.89 m/s, 334° | - | - |
| 1778025504 | 8.89° C | 33% | 1015.3 hPa | 0 mm | 2.68 m/s, 333° | - | - |
| 1778025202 | 8.89° C | 34% | 1015.4 hPa | 0 mm | 3.13 m/s, 34° | - | - |
| 1778024898 | 8.89° C | 33% | 1015.1 hPa | 0 mm | 3.13 m/s, 309° | - | - |
| 1778024596 | 8.89° C | 33% | 1015.1 hPa | 0 mm | 2.24 m/s, 353° | - | - |
| 1778024293 | 8.89° C | 33% | 1015 hPa | 0 mm | 1.34 m/s, 330° | - | - |
| 1778023991 | 8.89° C | 32% | 1014.7 hPa | 0 mm | 0.89 m/s, 33° | - | - |
| 1778023688 | 8.89° C | 32% | 1015.1 hPa | 0 mm | 1.34 m/s, 357° | - | - |
| 1778023385 | 9.44° C | 32% | 1015.1 hPa | 0 mm | 2.24 m/s, 306° | - | - |
| 1778023082 | 10° C | 31% | 1014.7 hPa | 0 mm | 0.45 m/s, 75° | - | - |
* Rain latest hour (hover to see other rain measurements)
** Current wind speed in m/s (hover to see current wind gust speed)